• Join FlightAware (Why Join?)
  • Login
  • US Flag 
Rudolph Flight #1: Arrived! 
01:35PM EST


 

Airport Tracker/Info


-or-


 

Live Flight TrackerFlight Track Log ✈ N75AW ✈ 11-Nov-2013 ✈ MYEH / ELH - KAPF

Flight Track Log - Related Links

Times and Time Zones

All times are in EST time to prevent confusion due to time zone crossing. See the N75AW flight status page for this flight to view local times or setup timezone preferences in your user account.

Time Position Orientation Groundspeed Altitude Reporting Facility
EST Latitude Longitude Course Direction KTS MPH feet Rate Location/Type
03:25PM 25.5351 -77.0856 270° West  Level Estimated
03:27PM 25.5050 -77.2708 270° West 272 313 13,200  Level Miami Center
03:28PM 25.5047 -77.3400 270° West 257 296 14,800 1,500 Climbing Miami Center
03:29PM 25.5044 -77.4000 270° West 223 257 16,300 1,320 Climbing Miami Center
03:30PM 25.5044 -77.4619 270° West 207 238 17,500 1,200 Climbing Miami Center
03:31PM 25.5061 -77.5333 271° West 207 238 18,800 1,200 Climbing Miami Center
03:32PM 25.5078 -77.5933 272° West 207 238 19,900 1,140 Climbing Miami Center
03:33PM 25.5075 -77.6578 270° West 207 238 21,100 1,020 Climbing Miami Center
03:34PM 25.5072 -77.7178 270° West 202 232 22,000 480 Climbing Miami Center
03:35PM 25.5089 -77.7844 272° West 202 232 22,100  Climbing Miami Center
03:36PM 25.5083 -77.8603 270° West 226 260 22,100  Level Miami Center
03:37PM 25.5100 -77.9364 271° West 243 280 22,100  Level Miami Center
03:38PM 25.5114 -78.0147 271° West 248 285 22,100  Level Miami Center
03:39PM 25.5108 -78.0931 270° West 253 291 22,100  Level Miami Center
03:40PM 25.5122 -78.1714 271° West 253 291 22,100  Level Miami Center
03:41PM 25.5117 -78.2497 270° West 253 291 22,100  Level Miami Center
03:42PM 25.5108 -78.3303 269° West 253 291 22,100  Level Miami Center
03:43PM 25.5142 -78.4086 273° West 258 297 22,100  Level Miami Center
03:44PM 25.5133 -78.4867 269° West 258 297 22,100  Level Miami Center
03:45PM 25.5167 -78.5650 273° West 252 290 22,100  Level Miami Center
03:46PM 25.5114 -78.6456 266° West 252 290 22,100  Level Miami Center
03:47PM 25.5147 -78.7217 273° West 252 290 22,100  Level Miami Center
03:48PM 25.5158 -78.8022 271° West 252 290 22,100  Level Miami Center
03:49PM 25.5167 -78.8806 271° West 252 290 22,100  Level Miami Center
03:50PM 25.5136 -78.9564 267° West 252 290 22,100  Level Miami Center
03:51PM 25.5144 -79.0372 271° West 252 290 22,100  Level Miami Center
03:52PM 25.5156 -79.1178 271° West 252 290 22,100  Level Miami Center
03:53PM 25.5142 -79.1958 269° West 257 296 22,100  Level Miami Center
03:54PM 25.5150 -79.2742 271° West 257 296 22,100  Level Miami Center
03:55PM 25.5158 -79.3525 271° West 252 290 22,100  Level Miami Center
03:56PM 25.5144 -79.4308 269° West 252 290 22,100  Level Miami Center
03:57PM 25.5153 -79.5092 271° West 252 290 22,100  Level Miami Center
03:58PM 25.5139 -79.5872 269° West 252 290 22,100  Level Miami Center
03:59PM 25.5144 -79.6656 270° West 252 290 22,100  Level Miami Center
04:00PM 25.5128 -79.7461 269° West 252 290 22,100  Level Miami Center
04:01PM 25.5133 -79.8244 270° West 252 290 22,100  Level Miami Center
04:02PM 25.5117 -79.9028 269° West 252 290 22,100  Level Miami Center
04:03PM 25.5100 -79.9808 269° West 252 290 22,100  Level Miami Center
04:04PM 25.5106 -80.0614 270° West 252 290 22,100  Level Miami Center
04:05PM 25.5089 -80.1397 269° West 252 290 22,100  Level Miami Center
04:06PM 25.5092 -80.2181 270° West 252 290 22,100  Level Miami Center
04:07PM 25.5072 -80.2961 268° West 252 290 22,100 -420 Level Miami Center
04:08PM 25.5075 -80.3792 270° West 257 296 21,300 -900 Descending Miami Center
04:09PM 25.5072 -80.4689 270° West 276 318 20,300 -900 Descending Miami Center
04:10PM 25.5056 -80.5447 269° West 286 329 19,600 -900 Descending Miami Center
04:11PM 25.5050 -80.6414 270° West 291 335 18,600 -900 Descending Miami Center
04:12PM 25.5033 -80.7103 268° West 291 335 17,800 -1,080 Descending Miami Center
04:13PM 25.5050 -80.8069 271° West 291 335 16,500 -1,320 Descending Miami Center
04:14PM 25.5047 -80.8922 270° West 291 335 15,200 -1,200 Descending Miami Center
04:15PM 25.5022 -80.9772 268° West 291 335 14,100 -1,080 Descending Miami Center
04:16PM 25.5019 -81.0600 270° West 285 328 13,100 -1,140 Descending Miami Center
04:17PM 25.5017 -81.1475 270° West 285 328 11,900 -1,200 Descending Miami Center
04:18PM 25.5014 -81.2281 270° West 285 328 10,800 -1,200 Descending Miami Center
04:19PM 25.5028 -81.3156 271° West 285 328 9,600 -1,140 Descending Miami Center
04:20PM 25.5022 -81.4031 270° West 285 328 8,600 -1,020 Descending Miami Center
04:21PM 25.5550 -81.4511 321° Northwest 257 296 7,600 -1,200 Descending Miami Center
04:22PM 25.6231 -81.4858 335° Northwest 238 274 6,300 -1,320 Descending Miami Center
04:23PM 25.6886 -81.5228 333° Northwest 254 292 5,000 -1,140 Descending Miami Center
04:24PM 25.7625 -81.5628 334° Northwest 265 305 4,100 -600 Descending Miami Center
04:25PM 25.8242 -81.5950 335° Northwest 257 296 3,800 -540 Descending Miami Center
04:26PM 25.8856 -81.6297 333° Northwest 251 289 3,100 -360 Descending Miami Center
04:27PM 25.9492 -81.6647 334° Northwest 251 289 3,100 -180 Level Miami Center
04:28PM 26.0067 -81.6994 332° Northwest 246 283 2,800 -840 Descending Miami Center
04:29PM 26.0611 -81.7500 320° Northwest 251 289 1,500 -720 Descending Miami Center
04:30PM 26.1061 -81.7842 326° Northwest 227 261 1,400 -540 Descending Miami Center
04:31PM 26.1328 -81.7947 340° North 171 197 500 2,280 Descending Miami Center
04:32PM 26.1744 -81.8011 352° North 171 197 6,000 2,700 Climbing Miami Center
04:33PM 26.2092 -81.8208 333° Northwest 171 197 6,000  Level Miami Center
04:34PM 26.2461 -81.8386 337° Northwest 171 197 6,000  Level Miami Center
04:35PM 26.2522 -81.8436 324° Northwest 171 197 6,000  Level Miami Center
04:38PM 26.1773 -81.7872 146° Southeast  Level FlightAware Approximate
04:45PM 26.1500 -81.7667 149° Southeast  Level FlightAware Approximate
04:46PM 26.1524 -81.7756 149° Southeast  Level Estimated